sensor_id;sensor_type;location;lat;lon;timestamp;P1;durP1;ratioP1;P2;durP2;ratioP2
26303;SDS011;57113;48.680;8.890;2023-02-18T00:01:00;1.08;;;0.85;;
26303;SDS011;57113;48.680;8.890;2023-02-18T00:03:27;1.15;;;0.70;;
26303;SDS011;57113;48.680;8.890;2023-02-18T00:05:53;0.95;;;0.73;;
26303;SDS011;57113;48.680;8.890;2023-02-18T00:08:19;1.30;;;0.70;;
26303;SDS011;57113;48.680;8.890;2023-02-18T00:10:46;0.90;;;0.60;;
26303;SDS011;57113;48.680;8.890;2023-02-18T00:13:12;1.30;;;0.80;;
26303;SDS011;57113;48.680;8.890;2023-02-18T00:15:38;0.88;;;0.75;;
26303;SDS011;57113;48.680;8.890;2023-02-18T00:18:05;1.05;;;0.75;;
26303;SDS011;57113;48.680;8.890;2023-02-18T00:20:31;0.75;;;0.60;;
26303;SDS011;57113;48.680;8.890;2023-02-18T00:22:59;1.15;;;0.75;;
26303;SDS011;57113;48.680;8.890;2023-02-18T00:25:25;1.42;;;0.75;;
26303;SDS011;57113;48.680;8.890;2023-02-18T00:27:51;1.00;;;0.70;;
26303;SDS011;57113;48.680;8.890;2023-02-18T00:30:17;1.08;;;0.77;;
26303;SDS011;57113;48.680;8.890;2023-02-18T00:32:43;1.30;;;0.68;;
26303;SDS011;57113;48.680;8.890;2023-02-18T00:35:09;0.70;;;0.60;;
26303;SDS011;57113;48.680;8.890;2023-02-18T00:37:35;1.33;;;0.60;;
26303;SDS011;57113;48.680;8.890;2023-02-18T00:40:01;0.95;;;0.80;;
26303;SDS011;57113;48.680;8.890;2023-02-18T00:42:27;1.20;;;0.70;;
26303;SDS011;57113;48.680;8.890;2023-02-18T00:44:53;1.67;;;0.70;;
26303;SDS011;57113;48.680;8.890;2023-02-18T00:47:19;1.10;;;0.60;;
26303;SDS011;57113;48.680;8.890;2023-02-18T00:49:45;0.70;;;0.60;;
26303;SDS011;57113;48.680;8.890;2023-02-18T00:52:11;1.00;;;0.60;;
26303;SDS011;57113;48.680;8.890;2023-02-18T00:54:37;0.75;;;0.60;;
26303;SDS011;57113;48.680;8.890;2023-02-18T00:57:03;0.70;;;0.50;;
26303;SDS011;57113;48.680;8.890;2023-02-18T00:59:30;1.55;;;0.60;;
26303;SDS011;57113;48.680;8.890;2023-02-18T01:01:56;1.20;;;0.55;;
26303;SDS011;57113;48.680;8.890;2023-02-18T01:04:22;1.38;;;0.60;;
26303;SDS011;57113;48.680;8.890;2023-02-18T01:06:48;1.95;;;0.70;;
26303;SDS011;57113;48.680;8.890;2023-02-18T01:09:14;0.93;;;0.70;;
26303;SDS011;57113;48.680;8.890;2023-02-18T01:11:40;0.73;;;0.60;;
26303;SDS011;57113;48.680;8.890;2023-02-18T01:14:06;0.65;;;0.60;;
26303;SDS011;57113;48.680;8.890;2023-02-18T01:16:32;0.75;;;0.60;;
26303;SDS011;57113;48.680;8.890;2023-02-18T01:18:58;0.70;;;0.60;;
26303;SDS011;57113;48.680;8.890;2023-02-18T01:21:24;0.82;;;0.60;;
26303;SDS011;57113;48.680;8.890;2023-02-18T01:23:50;1.33;;;0.70;;
26303;SDS011;57113;48.680;8.890;2023-02-18T01:26:16;1.50;;;0.70;;
26303;SDS011;57113;48.680;8.890;2023-02-18T01:28:42;1.40;;;0.70;;
26303;SDS011;57113;48.680;8.890;2023-02-18T01:31:11;0.68;;;0.57;;
26303;SDS011;57113;48.680;8.890;2023-02-18T01:33:37;0.93;;;0.70;;
26303;SDS011;57113;48.680;8.890;2023-02-18T01:36:03;0.93;;;0.60;;
26303;SDS011;57113;48.680;8.890;2023-02-18T01:38:29;0.88;;;0.60;;
26303;SDS011;57113;48.680;8.890;2023-02-18T01:40:55;0.60;;;0.60;;
26303;SDS011;57113;48.680;8.890;2023-02-18T01:43:21;0.98;;;0.75;;
26303;SDS011;57113;48.680;8.890;2023-02-18T01:45:55;1.17;;;0.63;;
26303;SDS011;57113;48.680;8.890;2023-02-18T01:51:02;1.08;;;0.80;;
26303;SDS011;57113;48.680;8.890;2023-02-18T01:53:35;1.60;;;0.80;;
26303;SDS011;57113;48.680;8.890;2023-02-18T01:56:02;0.57;;;0.47;;
26303;SDS011;57113;48.680;8.890;2023-02-18T01:58:29;0.70;;;0.50;;
26303;SDS011;57113;48.680;8.890;2023-02-18T02:00:55;0.50;;;0.50;;
26303;SDS011;57113;48.680;8.890;2023-02-18T02:03:21;0.73;;;0.60;;
26303;SDS011;57113;48.680;8.890;2023-02-18T02:05:47;0.52;;;0.52;;
26303;SDS011;57113;48.680;8.890;2023-02-18T02:08:13;0.80;;;0.60;;
26303;SDS011;57113;48.680;8.890;2023-02-18T02:15:47;1.08;;;0.80;;
26303;SDS011;57113;48.680;8.890;2023-02-18T02:18:22;0.90;;;0.68;;
26303;SDS011;57113;48.680;8.890;2023-02-18T02:28:39;1.23;;;0.80;;
26303;SDS011;57113;48.680;8.890;2023-02-18T02:36:14;1.05;;;0.60;;
26303;SDS011;57113;48.680;8.890;2023-02-18T02:46:28;0.82;;;0.60;;
26303;SDS011;57113;48.680;8.890;2023-02-18T02:51:29;0.63;;;0.57;;
26303;SDS011;57113;48.680;8.890;2023-02-18T02:54:10;0.70;;;0.60;;
26303;SDS011;57113;48.680;8.890;2023-02-18T02:56:38;0.63;;;0.60;;
26303;SDS011;57113;48.680;8.890;2023-02-18T02:59:05;0.57;;;0.52;;
26303;SDS011;57113;48.680;8.890;2023-02-18T03:01:35;0.80;;;0.70;;
26303;SDS011;57113;48.680;8.890;2023-02-18T03:04:07;1.08;;;0.70;;
26303;SDS011;57113;48.680;8.890;2023-02-18T03:17:22;1.27;;;0.63;;
26303;SDS011;57113;48.680;8.890;2023-02-18T03:19:57;0.93;;;0.63;;
26303;SDS011;57113;48.680;8.890;2023-02-18T03:22:29;1.00;;;0.70;;
26303;SDS011;57113;48.680;8.890;2023-02-18T03:24:55;0.60;;;0.50;;
26303;SDS011;57113;48.680;8.890;2023-02-18T03:27:29;1.05;;;0.60;;
26303;SDS011;57113;48.680;8.890;2023-02-18T03:29:58;0.60;;;0.60;;
26303;SDS011;57113;48.680;8.890;2023-02-18T03:32:26;0.55;;;0.55;;
26303;SDS011;57113;48.680;8.890;2023-02-18T03:34:55;0.75;;;0.65;;
26303;SDS011;57113;48.680;8.890;2023-02-18T03:37:22;0.70;;;0.65;;
26303;SDS011;57113;48.680;8.890;2023-02-18T03:39:49;1.25;;;0.68;;
26303;SDS011;57113;48.680;8.890;2023-02-18T03:42:16;0.82;;;0.68;;
26303;SDS011;57113;48.680;8.890;2023-02-18T03:44:43;0.50;;;0.50;;
26303;SDS011;57113;48.680;8.890;2023-02-18T03:47:09;0.70;;;0.60;;
26303;SDS011;57113;48.680;8.890;2023-02-18T03:49:35;0.70;;;0.60;;
26303;SDS011;57113;48.680;8.890;2023-02-18T03:52:01;0.60;;;0.50;;
26303;SDS011;57113;48.680;8.890;2023-02-18T03:54:27;0.98;;;0.65;;
26303;SDS011;57113;48.680;8.890;2023-02-18T03:56:53;0.80;;;0.70;;
26303;SDS011;57113;48.680;8.890;2023-02-18T03:59:19;0.60;;;0.47;;
26303;SDS011;57113;48.680;8.890;2023-02-18T04:01:45;0.93;;;0.60;;
26303;SDS011;57113;48.680;8.890;2023-02-18T04:04:11;0.80;;;0.60;;
26303;SDS011;57113;48.680;8.890;2023-02-18T04:06:37;0.70;;;0.63;;
26303;SDS011;57113;48.680;8.890;2023-02-18T04:09:03;0.90;;;0.63;;
26303;SDS011;57113;48.680;8.890;2023-02-18T04:11:33;0.80;;;0.68;;
26303;SDS011;57113;48.680;8.890;2023-02-18T04:13:59;0.80;;;0.65;;
26303;SDS011;57113;48.680;8.890;2023-02-18T04:16:25;0.82;;;0.70;;
26303;SDS011;57113;48.680;8.890;2023-02-18T04:18:51;1.13;;;0.60;;
26303;SDS011;57113;48.680;8.890;2023-02-18T04:21:17;0.90;;;0.70;;
26303;SDS011;57113;48.680;8.890;2023-02-18T04:23:43;0.70;;;0.50;;
26303;SDS011;57113;48.680;8.890;2023-02-18T04:26:08;0.70;;;0.70;;
26303;SDS011;57113;48.680;8.890;2023-02-18T04:28:34;1.00;;;0.60;;
26303;SDS011;57113;48.680;8.890;2023-02-18T04:31:00;0.88;;;0.68;;
26303;SDS011;57113;48.680;8.890;2023-02-18T04:33:26;0.80;;;0.70;;
26303;SDS011;57113;48.680;8.890;2023-02-18T04:35:52;0.90;;;0.60;;
26303;SDS011;57113;48.680;8.890;2023-02-18T04:38:19;1.10;;;0.55;;
26303;SDS011;57113;48.680;8.890;2023-02-18T04:40:45;0.88;;;0.50;;
26303;SDS011;57113;48.680;8.890;2023-02-18T04:43:11;1.08;;;0.75;;
26303;SDS011;57113;48.680;8.890;2023-02-18T04:45:37;0.65;;;0.57;;
26303;SDS011;57113;48.680;8.890;2023-02-18T04:48:03;1.05;;;0.60;;
26303;SDS011;57113;48.680;8.890;2023-02-18T04:50:29;0.93;;;0.60;;
26303;SDS011;57113;48.680;8.890;2023-02-18T04:52:55;0.77;;;0.60;;
26303;SDS011;57113;48.680;8.890;2023-02-18T04:55:21;0.70;;;0.52;;
26303;SDS011;57113;48.680;8.890;2023-02-18T04:57:47;0.50;;;0.40;;
26303;SDS011;57113;48.680;8.890;2023-02-18T05:00:14;0.60;;;0.55;;
26303;SDS011;57113;48.680;8.890;2023-02-18T05:02:41;0.60;;;0.50;;
26303;SDS011;57113;48.680;8.890;2023-02-18T05:05:07;0.50;;;0.50;;
26303;SDS011;57113;48.680;8.890;2023-02-18T05:07:33;0.60;;;0.50;;
26303;SDS011;57113;48.680;8.890;2023-02-18T05:09:59;0.68;;;0.40;;
26303;SDS011;57113;48.680;8.890;2023-02-18T05:12:25;0.65;;;0.50;;
26303;SDS011;57113;48.680;8.890;2023-02-18T05:14:51;0.63;;;0.50;;
26303;SDS011;57113;48.680;8.890;2023-02-18T05:17:17;0.93;;;0.70;;
26303;SDS011;57113;48.680;8.890;2023-02-18T05:19:43;0.60;;;0.50;;
26303;SDS011;57113;48.680;8.890;2023-02-18T05:22:09;0.70;;;0.50;;
26303;SDS011;57113;48.680;8.890;2023-02-18T05:24:35;0.90;;;0.52;;
26303;SDS011;57113;48.680;8.890;2023-02-18T05:27:01;0.60;;;0.60;;
26303;SDS011;57113;48.680;8.890;2023-02-18T05:29:27;0.50;;;0.50;;
26303;SDS011;57113;48.680;8.890;2023-02-18T05:31:53;0.60;;;0.50;;
26303;SDS011;57113;48.680;8.890;2023-02-18T05:34:19;1.02;;;0.63;;
26303;SDS011;57113;48.680;8.890;2023-02-18T05:36:45;0.45;;;0.38;;
26303;SDS011;57113;48.680;8.890;2023-02-18T05:39:11;0.50;;;0.40;;
26303;SDS011;57113;48.680;8.890;2023-02-18T05:41:37;0.80;;;0.57;;
26303;SDS011;57113;48.680;8.890;2023-02-18T05:44:03;0.60;;;0.50;;
26303;SDS011;57113;48.680;8.890;2023-02-18T05:46:48;0.57;;;0.45;;
26303;SDS011;57113;48.680;8.890;2023-02-18T05:49:14;0.73;;;0.60;;
26303;SDS011;57113;48.680;8.890;2023-02-18T05:51:40;0.30;;;0.30;;
26303;SDS011;57113;48.680;8.890;2023-02-18T05:54:06;0.50;;;0.40;;
26303;SDS011;57113;48.680;8.890;2023-02-18T05:56:32;0.75;;;0.60;;
26303;SDS011;57113;48.680;8.890;2023-02-18T05:58:58;0.80;;;0.43;;
26303;SDS011;57113;48.680;8.890;2023-02-18T06:01:24;0.80;;;0.55;;
26303;SDS011;57113;48.680;8.890;2023-02-18T06:03:50;0.52;;;0.50;;
26303;SDS011;57113;48.680;8.890;2023-02-18T06:06:16;0.73;;;0.63;;
26303;SDS011;57113;48.680;8.890;2023-02-18T06:08:42;0.63;;;0.55;;
26303;SDS011;57113;48.680;8.890;2023-02-18T06:11:08;0.50;;;0.40;;
26303;SDS011;57113;48.680;8.890;2023-02-18T06:13:34;0.60;;;0.45;;
26303;SDS011;57113;48.680;8.890;2023-02-18T06:16:00;0.82;;;0.63;;
26303;SDS011;57113;48.680;8.890;2023-02-18T06:18:26;1.02;;;0.55;;
26303;SDS011;57113;48.680;8.890;2023-02-18T06:20:52;0.60;;;0.50;;
26303;SDS011;57113;48.680;8.890;2023-02-18T06:23:18;0.60;;;0.52;;
26303;SDS011;57113;48.680;8.890;2023-02-18T06:25:46;0.40;;;0.40;;
26303;SDS011;57113;48.680;8.890;2023-02-18T06:28:13;0.60;;;0.50;;
26303;SDS011;57113;48.680;8.890;2023-02-18T06:30:39;0.65;;;0.40;;
26303;SDS011;57113;48.680;8.890;2023-02-18T06:33:05;0.88;;;0.50;;
26303;SDS011;57113;48.680;8.890;2023-02-18T06:35:31;0.85;;;0.52;;
26303;SDS011;57113;48.680;8.890;2023-02-18T06:37:57;0.82;;;0.63;;
26303;SDS011;57113;48.680;8.890;2023-02-18T06:40:23;0.95;;;0.70;;
26303;SDS011;57113;48.680;8.890;2023-02-18T06:42:49;0.63;;;0.50;;
26303;SDS011;57113;48.680;8.890;2023-02-18T06:45:15;0.60;;;0.43;;
26303;SDS011;57113;48.680;8.890;2023-02-18T06:47:41;0.65;;;0.55;;
26303;SDS011;57113;48.680;8.890;2023-02-18T06:50:07;0.82;;;0.63;;
26303;SDS011;57113;48.680;8.890;2023-02-18T06:52:33;0.80;;;0.63;;
26303;SDS011;57113;48.680;8.890;2023-02-18T06:55:02;0.60;;;0.50;;
26303;SDS011;57113;48.680;8.890;2023-02-18T06:57:28;0.73;;;0.60;;
26303;SDS011;57113;48.680;8.890;2023-02-18T06:59:54;0.88;;;0.60;;
26303;SDS011;57113;48.680;8.890;2023-02-18T07:02:20;0.63;;;0.52;;
26303;SDS011;57113;48.680;8.890;2023-02-18T07:04:46;1.23;;;0.70;;
26303;SDS011;57113;48.680;8.890;2023-02-18T07:07:12;0.90;;;0.60;;
26303;SDS011;57113;48.680;8.890;2023-02-18T07:09:38;1.17;;;0.80;;
26303;SDS011;57113;48.680;8.890;2023-02-18T07:12:04;0.90;;;0.70;;
26303;SDS011;57113;48.680;8.890;2023-02-18T07:14:30;0.80;;;0.70;;
26303;SDS011;57113;48.680;8.890;2023-02-18T07:16:56;0.88;;;0.47;;
26303;SDS011;57113;48.680;8.890;2023-02-18T07:19:22;0.73;;;0.60;;
26303;SDS011;57113;48.680;8.890;2023-02-18T07:21:48;0.63;;;0.60;;
26303;SDS011;57113;48.680;8.890;2023-02-18T07:24:14;0.75;;;0.57;;
26303;SDS011;57113;48.680;8.890;2023-02-18T07:26:40;0.65;;;0.60;;
26303;SDS011;57113;48.680;8.890;2023-02-18T07:29:06;1.02;;;0.63;;
26303;SDS011;57113;48.680;8.890;2023-02-18T07:31:32;0.93;;;0.75;;
26303;SDS011;57113;48.680;8.890;2023-02-18T07:33:58;1.02;;;0.70;;
26303;SDS011;57113;48.680;8.890;2023-02-18T07:36:25;0.82;;;0.60;;
26303;SDS011;57113;48.680;8.890;2023-02-18T07:38:50;0.85;;;0.63;;
26303;SDS011;57113;48.680;8.890;2023-02-18T07:41:20;1.10;;;0.70;;
26303;SDS011;57113;48.680;8.890;2023-02-18T07:43:47;0.98;;;0.70;;
26303;SDS011;57113;48.680;8.890;2023-02-18T07:46:13;0.80;;;0.60;;
26303;SDS011;57113;48.680;8.890;2023-02-18T07:48:39;0.80;;;0.60;;
26303;SDS011;57113;48.680;8.890;2023-02-18T07:51:06;0.80;;;0.70;;
26303;SDS011;57113;48.680;8.890;2023-02-18T07:53:33;1.45;;;0.80;;
26303;SDS011;57113;48.680;8.890;2023-02-18T07:55:59;0.70;;;0.60;;
26303;SDS011;57113;48.680;8.890;2023-02-18T07:58:27;1.10;;;0.80;;
26303;SDS011;57113;48.680;8.890;2023-02-18T08:00:54;2.00;;;0.90;;
26303;SDS011;57113;48.680;8.890;2023-02-18T08:03:23;0.90;;;0.73;;
26303;SDS011;57113;48.680;8.890;2023-02-18T08:05:50;0.80;;;0.77;;
26303;SDS011;57113;48.680;8.890;2023-02-18T08:08:20;2.67;;;0.93;;
26303;SDS011;57113;48.680;8.890;2023-02-18T08:10:47;0.90;;;0.63;;
26303;SDS011;57113;48.680;8.890;2023-02-18T08:13:13;0.85;;;0.65;;
26303;SDS011;57113;48.680;8.890;2023-02-18T08:15:39;0.80;;;0.75;;
26303;SDS011;57113;48.680;8.890;2023-02-18T08:18:06;1.00;;;0.80;;
26303;SDS011;57113;48.680;8.890;2023-02-18T08:20:36;1.00;;;0.82;;
26303;SDS011;57113;48.680;8.890;2023-02-18T08:23:02;1.05;;;0.77;;
26303;SDS011;57113;48.680;8.890;2023-02-18T08:25:28;1.00;;;0.80;;
26303;SDS011;57113;48.680;8.890;2023-02-18T08:27:54;1.50;;;0.80;;
26303;SDS011;57113;48.680;8.890;2023-02-18T08:30:21;0.80;;;0.70;;
26303;SDS011;57113;48.680;8.890;2023-02-18T08:32:47;1.10;;;0.95;;
26303;SDS011;57113;48.680;8.890;2023-02-18T08:35:13;1.23;;;0.80;;
26303;SDS011;57113;48.680;8.890;2023-02-18T08:37:39;1.45;;;0.82;;
26303;SDS011;57113;48.680;8.890;2023-02-18T08:40:05;1.38;;;0.73;;
26303;SDS011;57113;48.680;8.890;2023-02-18T08:42:31;1.30;;;0.85;;
26303;SDS011;57113;48.680;8.890;2023-02-18T08:44:58;1.70;;;1.10;;
26303;SDS011;57113;48.680;8.890;2023-02-18T08:47:24;1.30;;;1.00;;
26303;SDS011;57113;48.680;8.890;2023-02-18T08:49:51;1.23;;;0.80;;
26303;SDS011;57113;48.680;8.890;2023-02-18T08:52:18;1.00;;;0.80;;
26303;SDS011;57113;48.680;8.890;2023-02-18T08:54:44;2.45;;;0.98;;
26303;SDS011;57113;48.680;8.890;2023-02-18T08:57:10;1.63;;;1.02;;
26303;SDS011;57113;48.680;8.890;2023-02-18T08:59:36;1.20;;;0.85;;
26303;SDS011;57113;48.680;8.890;2023-02-18T09:02:02;2.13;;;1.00;;
26303;SDS011;57113;48.680;8.890;2023-02-18T09:04:28;1.98;;;1.17;;
26303;SDS011;57113;48.680;8.890;2023-02-18T09:06:54;1.52;;;1.00;;
26303;SDS011;57113;48.680;8.890;2023-02-18T09:09:20;1.20;;;1.00;;
26303;SDS011;57113;48.680;8.890;2023-02-18T09:11:46;0.73;;;0.70;;
26303;SDS011;57113;48.680;8.890;2023-02-18T09:14:13;1.60;;;0.90;;
26303;SDS011;57113;48.680;8.890;2023-02-18T09:16:39;0.90;;;0.70;;
26303;SDS011;57113;48.680;8.890;2023-02-18T09:19:05;0.98;;;0.80;;
26303;SDS011;57113;48.680;8.890;2023-02-18T09:21:31;1.20;;;1.08;;
26303;SDS011;57113;48.680;8.890;2023-02-18T09:23:57;1.67;;;1.10;;
26303;SDS011;57113;48.680;8.890;2023-02-18T09:26:23;2.08;;;1.00;;
26303;SDS011;57113;48.680;8.890;2023-02-18T09:28:50;1.38;;;0.95;;
26303;SDS011;57113;48.680;8.890;2023-02-18T09:31:18;0.73;;;0.68;;
26303;SDS011;57113;48.680;8.890;2023-02-18T09:33:49;0.88;;;0.75;;
26303;SDS011;57113;48.680;8.890;2023-02-18T09:36:15;0.93;;;0.80;;
26303;SDS011;57113;48.680;8.890;2023-02-18T09:38:41;0.98;;;0.75;;
26303;SDS011;57113;48.680;8.890;2023-02-18T09:41:09;1.13;;;0.88;;
26303;SDS011;57113;48.680;8.890;2023-02-18T09:43:40;1.45;;;1.02;;
26303;SDS011;57113;48.680;8.890;2023-02-18T09:46:18;1.20;;;0.80;;
26303;SDS011;57113;48.680;8.890;2023-02-18T09:48:44;1.55;;;0.98;;
26303;SDS011;57113;48.680;8.890;2023-02-18T09:51:14;2.15;;;1.00;;
26303;SDS011;57113;48.680;8.890;2023-02-18T09:53:41;1.00;;;0.90;;
26303;SDS011;57113;48.680;8.890;2023-02-18T09:56:11;2.08;;;1.08;;
26303;SDS011;57113;48.680;8.890;2023-02-18T09:58:39;0.82;;;0.73;;
26303;SDS011;57113;48.680;8.890;2023-02-18T10:01:09;1.35;;;0.90;;
26303;SDS011;57113;48.680;8.890;2023-02-18T10:03:35;0.93;;;0.80;;
26303;SDS011;57113;48.680;8.890;2023-02-18T10:06:03;0.82;;;0.70;;
26303;SDS011;57113;48.680;8.890;2023-02-18T10:08:46;1.15;;;1.00;;
26303;SDS011;57113;48.680;8.890;2023-02-18T10:11:14;1.73;;;1.10;;
26303;SDS011;57113;48.680;8.890;2023-02-18T10:13:41;1.27;;;1.00;;
26303;SDS011;57113;48.680;8.890;2023-02-18T10:16:07;1.58;;;0.90;;
26303;SDS011;57113;48.680;8.890;2023-02-18T10:18:41;1.58;;;0.80;;
26303;SDS011;57113;48.680;8.890;2023-02-18T10:21:10;1.52;;;1.10;;
26303;SDS011;57113;48.680;8.890;2023-02-18T10:23:38;1.23;;;0.98;;
26303;SDS011;57113;48.680;8.890;2023-02-18T10:26:06;0.90;;;0.80;;
26303;SDS011;57113;48.680;8.890;2023-02-18T10:28:34;3.03;;;0.90;;
26303;SDS011;57113;48.680;8.890;2023-02-18T10:31:02;1.30;;;0.90;;
26303;SDS011;57113;48.680;8.890;2023-02-18T10:33:33;1.23;;;0.85;;
26303;SDS011;57113;48.680;8.890;2023-02-18T10:41:05;1.40;;;1.00;;
26303;SDS011;57113;48.680;8.890;2023-02-18T10:51:20;1.20;;;0.80;;
26303;SDS011;57113;48.680;8.890;2023-02-18T10:53:48;1.17;;;0.68;;
26303;SDS011;57113;48.680;8.890;2023-02-18T10:59:00;0.93;;;0.70;;
26303;SDS011;57113;48.680;8.890;2023-02-18T11:01:29;1.65;;;0.88;;
26303;SDS011;57113;48.680;8.890;2023-02-18T11:04:15;0.90;;;0.60;;
26303;SDS011;57113;48.680;8.890;2023-02-18T11:06:43;0.70;;;0.60;;
26303;SDS011;57113;48.680;8.890;2023-02-18T11:09:20;1.73;;;0.88;;
26303;SDS011;57113;48.680;8.890;2023-02-18T11:11:49;1.30;;;0.90;;
26303;SDS011;57113;48.680;8.890;2023-02-18T11:14:16;1.75;;;0.88;;
26303;SDS011;57113;48.680;8.890;2023-02-18T11:16:59;1.95;;;1.00;;
26303;SDS011;57113;48.680;8.890;2023-02-18T11:19:33;1.67;;;0.88;;
26303;SDS011;57113;48.680;8.890;2023-02-18T11:24:37;1.38;;;0.80;;
26303;SDS011;57113;48.680;8.890;2023-02-18T11:27:10;1.17;;;0.90;;
26303;SDS011;57113;48.680;8.890;2023-02-18T11:29:38;1.23;;;0.93;;
26303;SDS011;57113;48.680;8.890;2023-02-18T11:32:04;1.58;;;0.93;;
26303;SDS011;57113;48.680;8.890;2023-02-18T11:34:36;1.08;;;0.80;;
26303;SDS011;57113;48.680;8.890;2023-02-18T11:37:09;1.23;;;0.90;;
26303;SDS011;57113;48.680;8.890;2023-02-18T11:39:36;0.98;;;0.70;;
26303;SDS011;57113;48.680;8.890;2023-02-18T11:42:07;1.05;;;0.88;;
26303;SDS011;57113;48.680;8.890;2023-02-18T11:44:41;0.80;;;0.50;;
26303;SDS011;57113;48.680;8.890;2023-02-18T11:49:39;1.10;;;0.70;;
26303;SDS011;57113;48.680;8.890;2023-02-18T11:54:38;1.45;;;0.73;;
26303;SDS011;57113;48.680;8.890;2023-02-18T11:57:05;1.05;;;0.60;;
26303;SDS011;57113;48.680;8.890;2023-02-18T11:59:32;0.82;;;0.70;;
26303;SDS011;57113;48.680;8.890;2023-02-18T12:02:01;1.27;;;0.88;;
26303;SDS011;57113;48.680;8.890;2023-02-18T12:04:47;1.00;;;0.77;;
26303;SDS011;57113;48.680;8.890;2023-02-18T12:07:19;1.10;;;0.75;;
26303;SDS011;57113;48.680;8.890;2023-02-18T12:09:56;1.27;;;1.10;;
26303;SDS011;57113;48.680;8.890;2023-02-18T12:14:49;1.85;;;1.00;;
26303;SDS011;57113;48.680;8.890;2023-02-18T12:22:44;0.95;;;0.68;;
26303;SDS011;57113;48.680;8.890;2023-02-18T12:48:56;1.60;;;0.88;;
26303;SDS011;57113;48.680;8.890;2023-02-18T12:59:11;1.10;;;0.85;;
26303;SDS011;57113;48.680;8.890;2023-02-18T13:14:28;1.52;;;0.80;;
26303;SDS011;57113;48.680;8.890;2023-02-18T13:16:57;1.42;;;1.02;;
26303;SDS011;57113;48.680;8.890;2023-02-18T13:19:25;1.33;;;0.98;;
26303;SDS011;57113;48.680;8.890;2023-02-18T13:21:52;1.98;;;0.90;;
26303;SDS011;57113;48.680;8.890;2023-02-18T13:24:30;1.05;;;0.82;;
26303;SDS011;57113;48.680;8.890;2023-02-18T13:29:31;1.42;;;0.82;;
26303;SDS011;57113;48.680;8.890;2023-02-18T13:39:29;1.73;;;0.98;;
26303;SDS011;57113;48.680;8.890;2023-02-18T13:52:48;2.92;;;0.95;;
26303;SDS011;57113;48.680;8.890;2023-02-18T13:55:17;1.15;;;1.00;;
26303;SDS011;57113;48.680;8.890;2023-02-18T13:57:46;2.13;;;1.20;;
26303;SDS011;57113;48.680;8.890;2023-02-18T14:00:22;1.30;;;0.98;;
26303;SDS011;57113;48.680;8.890;2023-02-18T14:02:57;1.45;;;1.05;;
26303;SDS011;57113;48.680;8.890;2023-02-18T14:05:23;1.20;;;1.05;;
26303;SDS011;57113;48.680;8.890;2023-02-18T14:08:05;1.67;;;1.10;;
26303;SDS011;57113;48.680;8.890;2023-02-18T14:10:33;1.50;;;1.25;;
26303;SDS011;57113;48.680;8.890;2023-02-18T14:15:56;1.90;;;0.88;;
26303;SDS011;57113;48.680;8.890;2023-02-18T14:18:31;1.50;;;1.08;;
26303;SDS011;57113;48.680;8.890;2023-02-18T14:23:39;1.38;;;1.05;;
26303;SDS011;57113;48.680;8.890;2023-02-18T14:31:02;1.95;;;1.20;;
26303;SDS011;57113;48.680;8.890;2023-02-18T14:33:33;2.28;;;1.40;;
26303;SDS011;57113;48.680;8.890;2023-02-18T14:36:08;1.48;;;1.20;;
26303;SDS011;57113;48.680;8.890;2023-02-18T14:41:27;2.00;;;1.38;;
26303;SDS011;57113;48.680;8.890;2023-02-18T14:51:55;2.00;;;1.10;;
26303;SDS011;57113;48.680;8.890;2023-02-18T14:54:22;2.08;;;1.40;;
26303;SDS011;57113;48.680;8.890;2023-02-18T14:56:55;2.20;;;1.30;;
26303;SDS011;57113;48.680;8.890;2023-02-18T14:59:21;2.38;;;1.20;;
26303;SDS011;57113;48.680;8.890;2023-02-18T15:01:48;2.60;;;1.15;;
26303;SDS011;57113;48.680;8.890;2023-02-18T15:04:14;1.63;;;1.00;;
26303;SDS011;57113;48.680;8.890;2023-02-18T15:06:40;1.60;;;1.08;;
26303;SDS011;57113;48.680;8.890;2023-02-18T15:09:14;1.65;;;0.98;;
26303;SDS011;57113;48.680;8.890;2023-02-18T15:11:48;2.83;;;1.23;;
26303;SDS011;57113;48.680;8.890;2023-02-18T15:14:19;1.23;;;1.02;;
26303;SDS011;57113;48.680;8.890;2023-02-18T15:16:46;1.75;;;1.17;;
26303;SDS011;57113;48.680;8.890;2023-02-18T15:19:14;1.23;;;1.08;;
26303;SDS011;57113;48.680;8.890;2023-02-18T15:21:47;1.52;;;1.10;;
26303;SDS011;57113;48.680;8.890;2023-02-18T15:26:47;2.20;;;1.15;;
26303;SDS011;57113;48.680;8.890;2023-02-18T15:29:17;1.63;;;1.08;;
26303;SDS011;57113;48.680;8.890;2023-02-18T15:31:44;1.55;;;1.10;;
26303;SDS011;57113;48.680;8.890;2023-02-18T15:36:57;1.20;;;0.93;;
26303;SDS011;57113;48.680;8.890;2023-02-18T15:39:23;1.35;;;1.00;;
26303;SDS011;57113;48.680;8.890;2023-02-18T15:41:53;1.67;;;1.25;;
26303;SDS011;57113;48.680;8.890;2023-02-18T15:44:21;2.13;;;1.20;;
26303;SDS011;57113;48.680;8.890;2023-02-18T15:46:48;1.73;;;1.13;;
26303;SDS011;57113;48.680;8.890;2023-02-18T15:49:14;1.50;;;1.08;;
26303;SDS011;57113;48.680;8.890;2023-02-18T15:51:40;2.85;;;1.25;;
26303;SDS011;57113;48.680;8.890;2023-02-18T15:54:12;1.20;;;1.05;;
26303;SDS011;57113;48.680;8.890;2023-02-18T15:56:39;1.80;;;1.20;;
26303;SDS011;57113;48.680;8.890;2023-02-18T15:59:12;2.55;;;1.30;;
26303;SDS011;57113;48.680;8.890;2023-02-18T16:01:40;2.00;;;1.20;;
26303;SDS011;57113;48.680;8.890;2023-02-18T16:04:07;1.50;;;1.05;;
26303;SDS011;57113;48.680;8.890;2023-02-18T16:06:37;1.85;;;1.20;;
26303;SDS011;57113;48.680;8.890;2023-02-18T16:09:11;2.00;;;1.23;;
26303;SDS011;57113;48.680;8.890;2023-02-18T16:11:39;2.20;;;1.20;;
26303;SDS011;57113;48.680;8.890;2023-02-18T16:14:06;1.30;;;1.00;;
26303;SDS011;57113;48.680;8.890;2023-02-18T16:16:33;2.15;;;1.35;;
26303;SDS011;57113;48.680;8.890;2023-02-18T16:18:59;1.77;;;1.33;;
26303;SDS011;57113;48.680;8.890;2023-02-18T16:21:30;1.50;;;1.00;;
26303;SDS011;57113;48.680;8.890;2023-02-18T16:23:59;2.70;;;1.40;;
26303;SDS011;57113;48.680;8.890;2023-02-18T16:26:29;2.30;;;1.30;;
26303;SDS011;57113;48.680;8.890;2023-02-18T16:29:00;1.85;;;1.30;;
26303;SDS011;57113;48.680;8.890;2023-02-18T16:31:27;1.80;;;1.17;;
26303;SDS011;57113;48.680;8.890;2023-02-18T16:33:53;1.73;;;1.30;;
26303;SDS011;57113;48.680;8.890;2023-02-18T16:36:19;1.58;;;1.20;;
26303;SDS011;57113;48.680;8.890;2023-02-18T16:38:46;1.65;;;1.25;;
26303;SDS011;57113;48.680;8.890;2023-02-18T16:41:13;1.50;;;1.23;;
26303;SDS011;57113;48.680;8.890;2023-02-18T16:43:39;4.00;;;1.58;;
26303;SDS011;57113;48.680;8.890;2023-02-18T16:46:15;2.05;;;1.30;;
26303;SDS011;57113;48.680;8.890;2023-02-18T16:48:42;2.13;;;1.40;;
26303;SDS011;57113;48.680;8.890;2023-02-18T16:51:16;2.30;;;1.38;;
26303;SDS011;57113;48.680;8.890;2023-02-18T16:53:43;1.70;;;1.33;;
26303;SDS011;57113;48.680;8.890;2023-02-18T16:56:16;1.30;;;1.15;;
26303;SDS011;57113;48.680;8.890;2023-02-18T16:58:42;1.73;;;1.45;;
26303;SDS011;57113;48.680;8.890;2023-02-18T17:01:24;2.90;;;1.60;;
26303;SDS011;57113;48.680;8.890;2023-02-18T17:03:51;2.10;;;1.30;;
26303;SDS011;57113;48.680;8.890;2023-02-18T17:06:18;2.22;;;1.40;;
26303;SDS011;57113;48.680;8.890;2023-02-18T17:08:44;2.65;;;1.50;;
26303;SDS011;57113;48.680;8.890;2023-02-18T17:11:20;1.77;;;1.20;;
26303;SDS011;57113;48.680;8.890;2023-02-18T17:13:47;2.33;;;1.50;;
26303;SDS011;57113;48.680;8.890;2023-02-18T17:16:13;2.30;;;1.40;;
26303;SDS011;57113;48.680;8.890;2023-02-18T17:18:40;2.03;;;1.55;;
26303;SDS011;57113;48.680;8.890;2023-02-18T17:21:10;2.20;;;1.20;;
26303;SDS011;57113;48.680;8.890;2023-02-18T17:23:37;1.70;;;1.25;;
26303;SDS011;57113;48.680;8.890;2023-02-18T17:26:04;1.60;;;1.20;;
26303;SDS011;57113;48.680;8.890;2023-02-18T17:28:34;1.60;;;1.30;;
26303;SDS011;57113;48.680;8.890;2023-02-18T17:31:00;2.65;;;1.52;;
26303;SDS011;57113;48.680;8.890;2023-02-18T17:33:26;2.15;;;1.42;;
26303;SDS011;57113;48.680;8.890;2023-02-18T17:35:52;2.22;;;1.42;;